sensor_id;sensor_type;location;lat;lon;timestamp;P1;durP1;ratioP1;P2;durP2;ratioP2
35522;SDS011;61478;50.820;4.330;2023-04-24T00:00:37;23.33;;;13.40;;
35522;SDS011;61478;50.820;4.330;2023-04-24T00:03:06;26.70;;;15.15;;
35522;SDS011;61478;50.820;4.330;2023-04-24T00:05:32;23.35;;;14.65;;
35522;SDS011;61478;50.820;4.330;2023-04-24T00:07:59;22.85;;;14.23;;
35522;SDS011;61478;50.820;4.330;2023-04-24T00:10:25;25.88;;;15.50;;
35522;SDS011;61478;50.820;4.330;2023-04-24T00:12:51;23.20;;;14.25;;
35522;SDS011;61478;50.820;4.330;2023-04-24T00:15:17;30.05;;;15.45;;
35522;SDS011;61478;50.820;4.330;2023-04-24T00:17:43;23.23;;;14.90;;
35522;SDS011;61478;50.820;4.330;2023-04-24T00:20:09;34.70;;;16.73;;
35522;SDS011;61478;50.820;4.330;2023-04-24T00:22:35;24.70;;;14.85;;
35522;SDS011;61478;50.820;4.330;2023-04-24T00:25:01;27.83;;;14.68;;
35522;SDS011;61478;50.820;4.330;2023-04-24T00:27:28;27.17;;;15.32;;
35522;SDS011;61478;50.820;4.330;2023-04-24T00:29:54;28.20;;;16.55;;
35522;SDS011;61478;50.820;4.330;2023-04-24T00:32:19;24.75;;;15.75;;
35522;SDS011;61478;50.820;4.330;2023-04-24T00:34:45;27.77;;;15.40;;
35522;SDS011;61478;50.820;4.330;2023-04-24T00:37:11;29.67;;;16.42;;
35522;SDS011;61478;50.820;4.330;2023-04-24T00:39:37;29.67;;;15.98;;
35522;SDS011;61478;50.820;4.330;2023-04-24T00:42:03;22.60;;;15.73;;
35522;SDS011;61478;50.820;4.330;2023-04-24T00:44:32;25.40;;;15.20;;
35522;SDS011;61478;50.820;4.330;2023-04-24T00:47:00;27.75;;;15.82;;
35522;SDS011;61478;50.820;4.330;2023-04-24T00:49:26;22.63;;;15.80;;
35522;SDS011;61478;50.820;4.330;2023-04-24T00:51:52;27.13;;;15.43;;
35522;SDS011;61478;50.820;4.330;2023-04-24T00:54:18;29.48;;;16.17;;
35522;SDS011;61478;50.820;4.330;2023-04-24T00:56:45;23.67;;;15.07;;
35522;SDS011;61478;50.820;4.330;2023-04-24T00:59:12;31.23;;;15.38;;
35522;SDS011;61478;50.820;4.330;2023-04-24T01:01:39;25.20;;;15.27;;
35522;SDS011;61478;50.820;4.330;2023-04-24T01:04:08;22.20;;;15.07;;
35522;SDS011;61478;50.820;4.330;2023-04-24T01:06:37;34.00;;;16.65;;
35522;SDS011;61478;50.820;4.330;2023-04-24T01:09:05;27.73;;;16.10;;
35522;SDS011;61478;50.820;4.330;2023-04-24T01:11:33;31.25;;;16.17;;
35522;SDS011;61478;50.820;4.330;2023-04-24T01:13:59;27.98;;;16.10;;
35522;SDS011;61478;50.820;4.330;2023-04-24T01:16:25;26.38;;;15.80;;
35522;SDS011;61478;50.820;4.330;2023-04-24T01:18:51;28.48;;;16.85;;
35522;SDS011;61478;50.820;4.330;2023-04-24T01:21:17;26.75;;;17.48;;
35522;SDS011;61478;50.820;4.330;2023-04-24T01:23:45;27.33;;;17.27;;
35522;SDS011;61478;50.820;4.330;2023-04-24T01:26:11;22.60;;;15.52;;
35522;SDS011;61478;50.820;4.330;2023-04-24T01:28:38;21.05;;;14.98;;
35522;SDS011;61478;50.820;4.330;2023-04-24T01:31:04;24.08;;;16.42;;
35522;SDS011;61478;50.820;4.330;2023-04-24T01:33:31;25.30;;;15.63;;
35522;SDS011;61478;50.820;4.330;2023-04-24T01:35:57;22.50;;;14.75;;
35522;SDS011;61478;50.820;4.330;2023-04-24T01:38:24;19.50;;;14.32;;
35522;SDS011;61478;50.820;4.330;2023-04-24T01:40:50;18.98;;;13.98;;
35522;SDS011;61478;50.820;4.330;2023-04-24T01:43:16;21.75;;;15.07;;
35522;SDS011;61478;50.820;4.330;2023-04-24T01:45:43;23.52;;;14.63;;
35522;SDS011;61478;50.820;4.330;2023-04-24T01:48:12;19.52;;;15.40;;
35522;SDS011;61478;50.820;4.330;2023-04-24T01:50:38;24.15;;;17.00;;
35522;SDS011;61478;50.820;4.330;2023-04-24T01:53:04;28.77;;;17.60;;
35522;SDS011;61478;50.820;4.330;2023-04-24T01:55:30;25.73;;;17.60;;
35522;SDS011;61478;50.820;4.330;2023-04-24T01:57:56;26.80;;;17.80;;
35522;SDS011;61478;50.820;4.330;2023-04-24T02:00:24;27.20;;;18.45;;
35522;SDS011;61478;50.820;4.330;2023-04-24T02:02:50;19.80;;;16.30;;
35522;SDS011;61478;50.820;4.330;2023-04-24T02:05:17;25.50;;;17.58;;
35522;SDS011;61478;50.820;4.330;2023-04-24T02:07:43;22.48;;;18.50;;
35522;SDS011;61478;50.820;4.330;2023-04-24T02:10:09;26.05;;;18.10;;
35522;SDS011;61478;50.820;4.330;2023-04-24T02:12:35;23.33;;;18.50;;
35522;SDS011;61478;50.820;4.330;2023-04-24T02:15:01;27.55;;;18.33;;
35522;SDS011;61478;50.820;4.330;2023-04-24T02:17:28;23.42;;;18.48;;
35522;SDS011;61478;50.820;4.330;2023-04-24T02:19:53;25.42;;;18.85;;
35522;SDS011;61478;50.820;4.330;2023-04-24T02:22:19;29.73;;;20.80;;
35522;SDS011;61478;50.820;4.330;2023-04-24T02:24:45;26.92;;;19.38;;
35522;SDS011;61478;50.820;4.330;2023-04-24T02:27:11;30.45;;;18.48;;
35522;SDS011;61478;50.820;4.330;2023-04-24T02:29:37;25.30;;;17.90;;
35522;SDS011;61478;50.820;4.330;2023-04-24T02:32:03;25.58;;;18.65;;
35522;SDS011;61478;50.820;4.330;2023-04-24T02:34:29;24.80;;;17.90;;
35522;SDS011;61478;50.820;4.330;2023-04-24T02:36:55;23.60;;;17.67;;
35522;SDS011;61478;50.820;4.330;2023-04-24T02:39:21;24.60;;;18.10;;
35522;SDS011;61478;50.820;4.330;2023-04-24T02:41:47;21.10;;;16.63;;
35522;SDS011;61478;50.820;4.330;2023-04-24T02:44:13;25.98;;;18.30;;
35522;SDS011;61478;50.820;4.330;2023-04-24T02:46:39;22.77;;;17.35;;
35522;SDS011;61478;50.820;4.330;2023-04-24T02:49:06;24.90;;;16.98;;
35522;SDS011;61478;50.820;4.330;2023-04-24T02:51:32;20.23;;;16.30;;
35522;SDS011;61478;50.820;4.330;2023-04-24T02:53:58;24.88;;;16.25;;
35522;SDS011;61478;50.820;4.330;2023-04-24T02:56:24;22.42;;;16.45;;
35522;SDS011;61478;50.820;4.330;2023-04-24T02:58:50;22.65;;;15.50;;
35522;SDS011;61478;50.820;4.330;2023-04-24T03:01:16;28.23;;;16.52;;
35522;SDS011;61478;50.820;4.330;2023-04-24T03:03:42;20.95;;;16.20;;
35522;SDS011;61478;50.820;4.330;2023-04-24T03:06:09;18.67;;;14.38;;
35522;SDS011;61478;50.820;4.330;2023-04-24T03:08:35;30.52;;;15.77;;
35522;SDS011;61478;50.820;4.330;2023-04-24T03:11:02;20.90;;;15.45;;
35522;SDS011;61478;50.820;4.330;2023-04-24T03:13:28;22.92;;;14.70;;
35522;SDS011;61478;50.820;4.330;2023-04-24T03:15:54;17.92;;;13.45;;
35522;SDS011;61478;50.820;4.330;2023-04-24T03:18:20;19.42;;;13.65;;
35522;SDS011;61478;50.820;4.330;2023-04-24T03:20:47;22.83;;;13.75;;
35522;SDS011;61478;50.820;4.330;2023-04-24T03:23:13;19.10;;;13.18;;
35522;SDS011;61478;50.820;4.330;2023-04-24T03:25:39;23.45;;;13.93;;
35522;SDS011;61478;50.820;4.330;2023-04-24T03:28:05;19.55;;;12.40;;
35522;SDS011;61478;50.820;4.330;2023-04-24T03:30:31;15.60;;;12.02;;
35522;SDS011;61478;50.820;4.330;2023-04-24T03:32:57;20.90;;;13.82;;
35522;SDS011;61478;50.820;4.330;2023-04-24T03:35:23;18.02;;;12.98;;
35522;SDS011;61478;50.820;4.330;2023-04-24T03:37:49;16.73;;;13.32;;
35522;SDS011;61478;50.820;4.330;2023-04-24T03:40:15;22.02;;;12.30;;
35522;SDS011;61478;50.820;4.330;2023-04-24T03:42:41;19.55;;;13.15;;
35522;SDS011;61478;50.820;4.330;2023-04-24T03:45:07;14.55;;;11.98;;
35522;SDS011;61478;50.820;4.330;2023-04-24T03:47:33;14.05;;;10.60;;
35522;SDS011;61478;50.820;4.330;2023-04-24T03:49:59;14.80;;;11.40;;
35522;SDS011;61478;50.820;4.330;2023-04-24T03:52:25;15.65;;;11.40;;
35522;SDS011;61478;50.820;4.330;2023-04-24T03:54:51;17.05;;;10.25;;
35522;SDS011;61478;50.820;4.330;2023-04-24T03:57:17;17.15;;;10.23;;
35522;SDS011;61478;50.820;4.330;2023-04-24T03:59:43;12.02;;;9.82;;
35522;SDS011;61478;50.820;4.330;2023-04-24T04:02:09;12.95;;;9.73;;
35522;SDS011;61478;50.820;4.330;2023-04-24T04:04:35;16.30;;;10.13;;
35522;SDS011;61478;50.820;4.330;2023-04-24T04:07:01;10.57;;;8.73;;
35522;SDS011;61478;50.820;4.330;2023-04-24T04:09:28;14.60;;;9.90;;
35522;SDS011;61478;50.820;4.330;2023-04-24T04:11:54;8.90;;;7.68;;
35522;SDS011;61478;50.820;4.330;2023-04-24T04:14:20;11.88;;;7.45;;
35522;SDS011;61478;50.820;4.330;2023-04-24T04:16:47;9.65;;;6.80;;
35522;SDS011;61478;50.820;4.330;2023-04-24T04:19:13;13.25;;;10.50;;
35522;SDS011;61478;50.820;4.330;2023-04-24T04:21:41;8.15;;;6.10;;
35522;SDS011;61478;50.820;4.330;2023-04-24T04:24:07;10.73;;;6.93;;
35522;SDS011;61478;50.820;4.330;2023-04-24T04:26:34;7.03;;;6.25;;
35522;SDS011;61478;50.820;4.330;2023-04-24T04:29:02;10.15;;;7.15;;
35522;SDS011;61478;50.820;4.330;2023-04-24T04:31:32;8.35;;;7.00;;
35522;SDS011;61478;50.820;4.330;2023-04-24T04:33:58;9.48;;;7.10;;
35522;SDS011;61478;50.820;4.330;2023-04-24T04:36:24;6.97;;;6.22;;
35522;SDS011;61478;50.820;4.330;2023-04-24T04:38:51;8.90;;;6.60;;
35522;SDS011;61478;50.820;4.330;2023-04-24T04:41:17;7.65;;;6.00;;
35522;SDS011;61478;50.820;4.330;2023-04-24T04:43:43;9.48;;;7.07;;
35522;SDS011;61478;50.820;4.330;2023-04-24T04:46:09;10.55;;;8.02;;
35522;SDS011;61478;50.820;4.330;2023-04-24T04:48:36;15.50;;;9.02;;
35522;SDS011;61478;50.820;4.330;2023-04-24T04:51:03;12.73;;;9.85;;
35522;SDS011;61478;50.820;4.330;2023-04-24T04:53:29;19.67;;;10.45;;
35522;SDS011;61478;50.820;4.330;2023-04-24T04:55:55;15.50;;;11.95;;
35522;SDS011;61478;50.820;4.330;2023-04-24T04:58:21;14.88;;;11.15;;
35522;SDS011;61478;50.820;4.330;2023-04-24T05:00:47;16.05;;;10.98;;
35522;SDS011;61478;50.820;4.330;2023-04-24T05:03:13;18.45;;;12.30;;
35522;SDS011;61478;50.820;4.330;2023-04-24T05:05:39;18.27;;;11.70;;
35522;SDS011;61478;50.820;4.330;2023-04-24T05:08:06;22.65;;;11.98;;
35522;SDS011;61478;50.820;4.330;2023-04-24T05:10:33;16.90;;;12.93;;
35522;SDS011;61478;50.820;4.330;2023-04-24T05:12:59;25.15;;;12.77;;
35522;SDS011;61478;50.820;4.330;2023-04-24T05:15:26;23.77;;;14.85;;
35522;SDS011;61478;50.820;4.330;2023-04-24T05:17:52;24.95;;;13.50;;
35522;SDS011;61478;50.820;4.330;2023-04-24T05:20:18;18.60;;;13.00;;
35522;SDS011;61478;50.820;4.330;2023-04-24T05:22:43;20.40;;;14.63;;
35522;SDS011;61478;50.820;4.330;2023-04-24T05:25:09;21.63;;;13.45;;
35522;SDS011;61478;50.820;4.330;2023-04-24T05:27:37;27.02;;;14.00;;
35522;SDS011;61478;50.820;4.330;2023-04-24T05:30:03;24.00;;;15.27;;
35522;SDS011;61478;50.820;4.330;2023-04-24T05:32:30;22.13;;;14.57;;
35522;SDS011;61478;50.820;4.330;2023-04-24T05:34:55;24.13;;;15.90;;
35522;SDS011;61478;50.820;4.330;2023-04-24T05:37:21;21.58;;;14.75;;
35522;SDS011;61478;50.820;4.330;2023-04-24T05:39:47;23.63;;;15.02;;
35522;SDS011;61478;50.820;4.330;2023-04-24T05:42:13;22.20;;;14.90;;
35522;SDS011;61478;50.820;4.330;2023-04-24T05:44:40;26.80;;;14.48;;
35522;SDS011;61478;50.820;4.330;2023-04-24T05:47:06;24.15;;;15.75;;
35522;SDS011;61478;50.820;4.330;2023-04-24T05:49:32;24.50;;;15.05;;
35522;SDS011;61478;50.820;4.330;2023-04-24T05:51:58;19.55;;;13.90;;
35522;SDS011;61478;50.820;4.330;2023-04-24T05:54:24;23.40;;;14.65;;
35522;SDS011;61478;50.820;4.330;2023-04-24T05:56:50;24.42;;;16.45;;
35522;SDS011;61478;50.820;4.330;2023-04-24T05:59:16;24.98;;;15.50;;
35522;SDS011;61478;50.820;4.330;2023-04-24T06:01:41;23.35;;;16.40;;
35522;SDS011;61478;50.820;4.330;2023-04-24T06:04:07;24.13;;;17.48;;
35522;SDS011;61478;50.820;4.330;2023-04-24T06:06:34;20.92;;;16.13;;
35522;SDS011;61478;50.820;4.330;2023-04-24T06:09:03;24.85;;;15.13;;
35522;SDS011;61478;50.820;4.330;2023-04-24T06:11:30;28.17;;;16.02;;
35522;SDS011;61478;50.820;4.330;2023-04-24T06:13:56;27.83;;;16.30;;
35522;SDS011;61478;50.820;4.330;2023-04-24T06:16:22;29.05;;;16.65;;
35522;SDS011;61478;50.820;4.330;2023-04-24T06:18:48;22.90;;;16.00;;
35522;SDS011;61478;50.820;4.330;2023-04-24T06:21:15;28.63;;;15.73;;
35522;SDS011;61478;50.820;4.330;2023-04-24T06:23:41;30.00;;;17.65;;
35522;SDS011;61478;50.820;4.330;2023-04-24T06:26:07;21.98;;;15.48;;
35522;SDS011;61478;50.820;4.330;2023-04-24T06:28:33;24.98;;;16.63;;
35522;SDS011;61478;50.820;4.330;2023-04-24T06:31:00;32.83;;;17.25;;
35522;SDS011;61478;50.820;4.330;2023-04-24T06:33:25;21.35;;;16.92;;
35522;SDS011;61478;50.820;4.330;2023-04-24T06:35:51;31.23;;;17.40;;
35522;SDS011;61478;50.820;4.330;2023-04-24T06:38:17;29.60;;;18.17;;
35522;SDS011;61478;50.820;4.330;2023-04-24T06:40:43;31.65;;;17.88;;
35522;SDS011;61478;50.820;4.330;2023-04-24T06:43:10;23.73;;;18.17;;
35522;SDS011;61478;50.820;4.330;2023-04-24T06:45:36;30.00;;;18.88;;
35522;SDS011;61478;50.820;4.330;2023-04-24T06:48:04;31.20;;;18.65;;
35522;SDS011;61478;50.820;4.330;2023-04-24T06:50:30;26.92;;;18.42;;
35522;SDS011;61478;50.820;4.330;2023-04-24T06:52:56;29.85;;;18.50;;
35522;SDS011;61478;50.820;4.330;2023-04-24T06:55:22;29.40;;;18.55;;
35522;SDS011;61478;50.820;4.330;2023-04-24T06:57:48;28.27;;;18.50;;
35522;SDS011;61478;50.820;4.330;2023-04-24T07:00:14;34.55;;;19.80;;
35522;SDS011;61478;50.820;4.330;2023-04-24T07:02:40;28.20;;;19.63;;
35522;SDS011;61478;50.820;4.330;2023-04-24T07:05:06;30.75;;;19.90;;
35522;SDS011;61478;50.820;4.330;2023-04-24T07:07:33;27.23;;;20.05;;
35522;SDS011;61478;50.820;4.330;2023-04-24T07:09:59;39.53;;;20.50;;
35522;SDS011;61478;50.820;4.330;2023-04-24T07:12:25;29.98;;;20.38;;
35522;SDS011;61478;50.820;4.330;2023-04-24T07:14:51;30.90;;;19.08;;
35522;SDS011;61478;50.820;4.330;2023-04-24T07:17:17;31.73;;;19.52;;
35522;SDS011;61478;50.820;4.330;2023-04-24T07:19:43;31.88;;;19.25;;
35522;SDS011;61478;50.820;4.330;2023-04-24T07:22:09;27.17;;;17.77;;
35522;SDS011;61478;50.820;4.330;2023-04-24T07:24:42;29.50;;;18.02;;
35522;SDS011;61478;50.820;4.330;2023-04-24T07:27:11;31.90;;;18.48;;
35522;SDS011;61478;50.820;4.330;2023-04-24T07:29:40;25.58;;;17.80;;
35522;SDS011;61478;50.820;4.330;2023-04-24T07:32:06;35.40;;;19.30;;
35522;SDS011;61478;50.820;4.330;2023-04-24T07:34:33;29.13;;;17.60;;
35522;SDS011;61478;50.820;4.330;2023-04-24T07:36:59;29.45;;;18.65;;
35522;SDS011;61478;50.820;4.330;2023-04-24T07:39:26;33.38;;;19.40;;
35522;SDS011;61478;50.820;4.330;2023-04-24T07:41:52;32.20;;;19.65;;
35522;SDS011;61478;50.820;4.330;2023-04-24T07:44:18;31.45;;;19.50;;
35522;SDS011;61478;50.820;4.330;2023-04-24T07:46:45;31.77;;;18.38;;
35522;SDS011;61478;50.820;4.330;2023-04-24T07:49:11;31.42;;;18.27;;
35522;SDS011;61478;50.820;4.330;2023-04-24T07:51:37;30.10;;;18.55;;
35522;SDS011;61478;50.820;4.330;2023-04-24T07:54:04;31.48;;;15.98;;
35522;SDS011;61478;50.820;4.330;2023-04-24T07:56:33;28.40;;;17.00;;
35522;SDS011;61478;50.820;4.330;2023-04-24T07:59:01;28.40;;;16.15;;
35522;SDS011;61478;50.820;4.330;2023-04-24T08:01:27;27.55;;;15.45;;
35522;SDS011;61478;50.820;4.330;2023-04-24T08:03:53;25.38;;;13.38;;
35522;SDS011;61478;50.820;4.330;2023-04-24T08:06:21;28.02;;;14.38;;
35522;SDS011;61478;50.820;4.330;2023-04-24T08:08:48;24.63;;;13.45;;
35522;SDS011;61478;50.820;4.330;2023-04-24T08:11:13;30.80;;;13.02;;
35522;SDS011;61478;50.820;4.330;2023-04-24T08:13:39;27.75;;;11.98;;
35522;SDS011;61478;50.820;4.330;2023-04-24T08:16:06;31.33;;;12.23;;
35522;SDS011;61478;50.820;4.330;2023-04-24T08:18:32;18.23;;;9.73;;
35522;SDS011;61478;50.820;4.330;2023-04-24T08:20:59;25.58;;;11.63;;
35522;SDS011;61478;50.820;4.330;2023-04-24T08:23:26;21.42;;;10.70;;
35522;SDS011;61478;50.820;4.330;2023-04-24T08:25:52;29.70;;;11.23;;
35522;SDS011;61478;50.820;4.330;2023-04-24T08:28:18;25.17;;;10.45;;
35522;SDS011;61478;50.820;4.330;2023-04-24T08:30:45;23.63;;;10.50;;
35522;SDS011;61478;50.820;4.330;2023-04-24T08:33:19;20.48;;;10.60;;
35522;SDS011;61478;50.820;4.330;2023-04-24T08:35:46;26.77;;;10.32;;
35522;SDS011;61478;50.820;4.330;2023-04-24T08:38:11;15.00;;;8.27;;
35522;SDS011;61478;50.820;4.330;2023-04-24T08:40:38;23.33;;;9.07;;
35522;SDS011;61478;50.820;4.330;2023-04-24T08:43:04;20.33;;;9.90;;
35522;SDS011;61478;50.820;4.330;2023-04-24T08:45:32;20.88;;;10.57;;
35522;SDS011;61478;50.820;4.330;2023-04-24T08:47:58;18.90;;;8.85;;
35522;SDS011;61478;50.820;4.330;2023-04-24T08:50:25;19.23;;;7.88;;
35522;SDS011;61478;50.820;4.330;2023-04-24T08:52:51;16.13;;;9.73;;
35522;SDS011;61478;50.820;4.330;2023-04-24T08:55:19;19.00;;;7.22;;
35522;SDS011;61478;50.820;4.330;2023-04-24T08:57:48;13.40;;;6.60;;
35522;SDS011;61478;50.820;4.330;2023-04-24T09:00:17;12.13;;;5.85;;
35522;SDS011;61478;50.820;4.330;2023-04-24T09:02:44;17.65;;;6.93;;
35522;SDS011;61478;50.820;4.330;2023-04-24T09:05:12;11.65;;;6.13;;
35522;SDS011;61478;50.820;4.330;2023-04-24T09:07:39;11.13;;;5.38;;
35522;SDS011;61478;50.820;4.330;2023-04-24T09:10:09;16.05;;;6.20;;
35522;SDS011;61478;50.820;4.330;2023-04-24T09:12:37;10.68;;;5.20;;
35522;SDS011;61478;50.820;4.330;2023-04-24T09:15:03;14.63;;;5.88;;
35522;SDS011;61478;50.820;4.330;2023-04-24T09:17:30;10.50;;;5.20;;
35522;SDS011;61478;50.820;4.330;2023-04-24T09:19:56;14.20;;;4.97;;
35522;SDS011;61478;50.820;4.330;2023-04-24T09:22:22;9.98;;;4.18;;
35522;SDS011;61478;50.820;4.330;2023-04-24T09:24:48;9.68;;;4.63;;
35522;SDS011;61478;50.820;4.330;2023-04-24T09:27:28;18.15;;;5.68;;
35522;SDS011;61478;50.820;4.330;2023-04-24T09:29:57;16.55;;;6.22;;
35522;SDS011;61478;50.820;4.330;2023-04-24T09:32:23;11.75;;;5.35;;
35522;SDS011;61478;50.820;4.330;2023-04-24T09:35:12;15.32;;;5.30;;
35522;SDS011;61478;50.820;4.330;2023-04-24T09:37:39;17.83;;;5.03;;
35522;SDS011;61478;50.820;4.330;2023-04-24T09:42:45;17.02;;;5.40;;
35522;SDS011;61478;50.820;4.330;2023-04-24T09:45:16;13.88;;;5.40;;
35522;SDS011;61478;50.820;4.330;2023-04-24T09:47:42;16.20;;;5.55;;
35522;SDS011;61478;50.820;4.330;2023-04-24T09:52:56;14.98;;;5.38;;
35522;SDS011;61478;50.820;4.330;2023-04-24T09:55:27;14.02;;;5.75;;
35522;SDS011;61478;50.820;4.330;2023-04-24T09:57:57;16.10;;;5.53;;
35522;SDS011;61478;50.820;4.330;2023-04-24T10:00:26;18.30;;;5.80;;
35522;SDS011;61478;50.820;4.330;2023-04-24T10:03:12;16.10;;;5.15;;
35522;SDS011;61478;50.820;4.330;2023-04-24T10:05:38;21.45;;;4.68;;
35522;SDS011;61478;50.820;4.330;2023-04-24T10:08:10;11.88;;;4.97;;
35522;SDS011;61478;50.820;4.330;2023-04-24T10:10:40;9.95;;;4.50;;
35522;SDS011;61478;50.820;4.330;2023-04-24T10:13:12;16.13;;;5.15;;
35522;SDS011;61478;50.820;4.330;2023-04-24T10:15:40;19.42;;;5.30;;
35522;SDS011;61478;50.820;4.330;2023-04-24T10:18:07;15.07;;;5.53;;
35522;SDS011;61478;50.820;4.330;2023-04-24T10:20:35;12.88;;;5.85;;
35522;SDS011;61478;50.820;4.330;2023-04-24T10:23:03;19.80;;;6.00;;
35522;SDS011;61478;50.820;4.330;2023-04-24T10:25:30;12.05;;;5.18;;
35522;SDS011;61478;50.820;4.330;2023-04-24T10:27:58;14.07;;;5.28;;
35522;SDS011;61478;50.820;4.330;2023-04-24T10:30:26;18.15;;;6.60;;
35522;SDS011;61478;50.820;4.330;2023-04-24T10:32:56;15.23;;;6.25;;
35522;SDS011;61478;50.820;4.330;2023-04-24T10:35:22;15.65;;;6.38;;
35522;SDS011;61478;50.820;4.330;2023-04-24T10:37:56;16.88;;;6.25;;
35522;SDS011;61478;50.820;4.330;2023-04-24T10:40:31;24.88;;;6.70;;
35522;SDS011;61478;50.820;4.330;2023-04-24T10:42:58;13.30;;;5.93;;
35522;SDS011;61478;50.820;4.330;2023-04-24T10:45:27;16.25;;;6.38;;
35522;SDS011;61478;50.820;4.330;2023-04-24T10:47:56;11.70;;;6.13;;
35522;SDS011;61478;50.820;4.330;2023-04-24T10:50:22;15.05;;;5.13;;
35522;SDS011;61478;50.820;4.330;2023-04-24T10:52:48;15.30;;;6.15;;
35522;SDS011;61478;50.820;4.330;2023-04-24T10:58:15;19.00;;;6.22;;
35522;SDS011;61478;50.820;4.330;2023-04-24T11:00:42;17.63;;;6.88;;
35522;SDS011;61478;50.820;4.330;2023-04-24T11:03:50;14.05;;;6.07;;
35522;SDS011;61478;50.820;4.330;2023-04-24T11:06:07;10.82;;;5.85;;
35522;SDS011;61478;50.820;4.330;2023-04-24T11:08:46;12.57;;;5.80;;
35522;SDS011;61478;50.820;4.330;2023-04-24T11:11:15;10.30;;;5.35;;
35522;SDS011;61478;50.820;4.330;2023-04-24T11:16:20;12.05;;;5.97;;
35522;SDS011;61478;50.820;4.330;2023-04-24T11:19:01;12.93;;;5.30;;
35522;SDS011;61478;50.820;4.330;2023-04-24T11:21:36;9.48;;;5.47;;
35522;SDS011;61478;50.820;4.330;2023-04-24T11:29:39;11.65;;;5.72;;
35522;SDS011;61478;50.820;4.330;2023-04-24T11:32:14;11.50;;;6.57;;
35522;SDS011;61478;50.820;4.330;2023-04-24T11:34:48;10.35;;;5.63;;
35522;SDS011;61478;50.820;4.330;2023-04-24T11:37:15;16.00;;;6.78;;
35522;SDS011;61478;50.820;4.330;2023-04-24T11:39:42;14.80;;;6.90;;
35522;SDS011;61478;50.820;4.330;2023-04-24T11:42:12;17.95;;;6.85;;
35522;SDS011;61478;50.820;4.330;2023-04-24T11:44:41;10.30;;;6.80;;
35522;SDS011;61478;50.820;4.330;2023-04-24T11:47:08;18.15;;;7.38;;
35522;SDS011;61478;50.820;4.330;2023-04-24T11:49:37;9.27;;;6.78;;
35522;SDS011;61478;50.820;4.330;2023-04-24T11:52:03;15.27;;;6.53;;
35522;SDS011;61478;50.820;4.330;2023-04-24T11:54:30;15.10;;;6.72;;
35522;SDS011;61478;50.820;4.330;2023-04-24T11:56:56;13.63;;;7.03;;
35522;SDS011;61478;50.820;4.330;2023-04-24T11:59:22;19.77;;;8.32;;
35522;SDS011;61478;50.820;4.330;2023-04-24T12:01:49;11.75;;;7.32;;
35522;SDS011;61478;50.820;4.330;2023-04-24T12:04:16;15.85;;;8.30;;
35522;SDS011;61478;50.820;4.330;2023-04-24T12:06:59;17.85;;;7.00;;
35522;SDS011;61478;50.820;4.330;2023-04-24T12:09:29;12.05;;;6.68;;
35522;SDS011;61478;50.820;4.330;2023-04-24T12:12:06;17.27;;;6.20;;
35522;SDS011;61478;50.820;4.330;2023-04-24T12:14:32;16.65;;;6.78;;
35522;SDS011;61478;50.820;4.330;2023-04-24T12:16:58;16.73;;;7.28;;
35522;SDS011;61478;50.820;4.330;2023-04-24T12:19:24;10.68;;;5.28;;
35522;SDS011;61478;50.820;4.330;2023-04-24T12:22:03;9.93;;;6.80;;
35522;SDS011;61478;50.820;4.330;2023-04-24T12:24:30;14.25;;;6.90;;
35522;SDS011;61478;50.820;4.330;2023-04-24T12:26:57;12.40;;;6.82;;
35522;SDS011;61478;50.820;4.330;2023-04-24T12:29:24;12.15;;;6.78;;
35522;SDS011;61478;50.820;4.330;2023-04-24T12:31:50;10.18;;;6.95;;
35522;SDS011;61478;50.820;4.330;2023-04-24T12:34:20;14.20;;;6.68;;
35522;SDS011;61478;50.820;4.330;2023-04-24T12:36:49;17.23;;;6.90;;
35522;SDS011;61478;50.820;4.330;2023-04-24T12:39:16;11.48;;;6.03;;
35522;SDS011;61478;50.820;4.330;2023-04-24T12:41:58;12.68;;;5.88;;
35522;SDS011;61478;50.820;4.330;2023-04-24T12:44:30;15.40;;;7.20;;
35522;SDS011;61478;50.820;4.330;2023-04-24T12:46:56;9.57;;;5.88;;
35522;SDS011;61478;50.820;4.330;2023-04-24T12:49:23;13.45;;;6.53;;
35522;SDS011;61478;50.820;4.330;2023-04-24T12:51:48;12.73;;;5.95;;
35522;SDS011;61478;50.820;4.330;2023-04-24T12:54:14;7.93;;;4.88;;
35522;SDS011;61478;50.820;4.330;2023-04-24T12:56:40;10.75;;;6.13;;
35522;SDS011;61478;50.820;4.330;2023-04-24T12:59:06;12.90;;;6.03;;
35522;SDS011;61478;50.820;4.330;2023-04-24T13:01:32;9.77;;;5.10;;
35522;SDS011;61478;50.820;4.330;2023-04-24T13:03:58;15.35;;;4.75;;
35522;SDS011;61478;50.820;4.330;2023-04-24T13:06:24;12.70;;;4.78;;
35522;SDS011;61478;50.820;4.330;2023-04-24T13:08:51;10.43;;;5.03;;
35522;SDS011;61478;50.820;4.330;2023-04-24T13:11:17;13.57;;;4.53;;
35522;SDS011;61478;50.820;4.330;2023-04-24T13:13:43;11.43;;;5.15;;
35522;SDS011;61478;50.820;4.330;2023-04-24T13:16:09;18.92;;;5.32;;
35522;SDS011;61478;50.820;4.330;2023-04-24T13:18:35;15.55;;;5.28;;
35522;SDS011;61478;50.820;4.330;2023-04-24T13:21:02;7.65;;;4.47;;
35522;SDS011;61478;50.820;4.330;2023-04-24T13:23:28;12.32;;;4.85;;
35522;SDS011;61478;50.820;4.330;2023-04-24T13:25:54;14.27;;;4.65;;
35522;SDS011;61478;50.820;4.330;2023-04-24T13:28:22;10.85;;;4.70;;
35522;SDS011;61478;50.820;4.330;2023-04-24T13:30:52;8.60;;;3.83;;
35522;SDS011;61478;50.820;4.330;2023-04-24T13:33:18;10.77;;;3.80;;
35522;SDS011;61478;50.820;4.330;2023-04-24T13:35:43;8.88;;;3.65;;
35522;SDS011;61478;50.820;4.330;2023-04-24T13:38:09;9.75;;;4.50;;
35522;SDS011;61478;50.820;4.330;2023-04-24T13:40:35;34.10;;;5.90;;
35522;SDS011;61478;50.820;4.330;2023-04-24T13:43:01;8.82;;;3.97;;
35522;SDS011;61478;50.820;4.330;2023-04-24T13:45:27;6.75;;;3.30;;
35522;SDS011;61478;50.820;4.330;2023-04-24T13:47:53;10.13;;;3.63;;
35522;SDS011;61478;50.820;4.330;2023-04-24T13:50:20;11.45;;;4.05;;
35522;SDS011;61478;50.820;4.330;2023-04-24T13:52:46;9.07;;;3.83;;
35522;SDS011;61478;50.820;4.330;2023-04-24T13:55:12;13.75;;;3.90;;
35522;SDS011;61478;50.820;4.330;2023-04-24T13:57:38;8.45;;;3.97;;
35522;SDS011;61478;50.820;4.330;2023-04-24T14:00:04;12.93;;;4.65;;
35522;SDS011;61478;50.820;4.330;2023-04-24T14:02:31;9.63;;;4.50;;
35522;SDS011;61478;50.820;4.330;2023-04-24T14:04:57;7.53;;;3.20;;
35522;SDS011;61478;50.820;4.330;2023-04-24T14:07:23;11.10;;;3.33;;
35522;SDS011;61478;50.820;4.330;2023-04-24T14:09:49;15.00;;;3.95;;
35522;SDS011;61478;50.820;4.330;2023-04-24T14:12:16;11.38;;;3.13;;
35522;SDS011;61478;50.820;4.330;2023-04-24T14:14:44;27.58;;;5.32;;
35522;SDS011;61478;50.820;4.330;2023-04-24T14:17:11;6.10;;;2.70;;
35522;SDS011;61478;50.820;4.330;2023-04-24T14:19:37;8.60;;;2.85;;
35522;SDS011;61478;50.820;4.330;2023-04-24T14:22:02;10.00;;;3.70;;
35522;SDS011;61478;50.820;4.330;2023-04-24T14:24:28;8.15;;;2.90;;
35522;SDS011;61478;50.820;4.330;2023-04-24T14:26:54;5.13;;;2.65;;
35522;SDS011;61478;50.820;4.330;2023-04-24T14:29:21;7.35;;;3.17;;
35522;SDS011;61478;50.820;4.330;2023-04-24T14:31:47;7.90;;;2.50;;
35522;SDS011;61478;50.820;4.330;2023-04-24T14:34:13;5.72;;;2.95;;
35522;SDS011;61478;50.820;4.330;2023-04-24T14:36:40;9.20;;;3.08;;
35522;SDS011;61478;50.820;4.330;2023-04-24T14:39:07;6.93;;;2.22;;
35522;SDS011;61478;50.820;4.330;2023-04-24T14:41:33;16.48;;;3.40;;
35522;SDS011;61478;50.820;4.330;2023-04-24T14:44:03;9.40;;;2.67;;